This is the latest recevied weather packets stored in our database for station/object KC1OEK-13. If no packets are shown the sender has not sent any weather packets the latest 10 day(s).
| Time | Temp. | Humidity | Pressure | Rain* | Wind** | Luminosity | Snow |
|---|---|---|---|---|---|---|---|
| 1787868837 | 24.44° C | 80% | 1017.4 hPa | 0 mm | - | 133 W/m² | - |
| 1787868536 | 23.89° C | 81% | 1017.5 hPa | 0 mm | - | 131 W/m² | - |
| 1787868235 | 23.89° C | 82% | 1017.6 hPa | 0 mm | - | 159 W/m² | - |
| 1787867930 | 23.33° C | 83% | 1017.7 hPa | 0 mm | - | 129 W/m² | - |
| 1787867626 | 23.33° C | 82% | 1017.7 hPa | 0 mm | - | 83 W/m² | - |
| 1787867320 | 23.33° C | 83% | 1017.7 hPa | 0 mm | - | 65 W/m² | - |
| 1787867017 | 23.33° C | 82% | 1017.9 hPa | 0 mm | - | 72 W/m² | - |
| 1787866712 | 23.33° C | 81% | 1017.8 hPa | 0 mm | - | 65 W/m² | - |
| 1787866410 | 23.89° C | 82% | 1017.9 hPa | 0 mm | - | 51 W/m² | - |
| 1787866105 | 24.44° C | 80% | 1017.9 hPa | 0 mm | - | 58 W/m² | - |
| 1787865800 | 25° C | 77% | 1018 hPa | 0 mm | - | 168 W/m² | - |
| 1787865495 | 24.44° C | 79% | 1017.9 hPa | 0 mm | - | 272 W/m² | - |
| 1787865190 | 23.89° C | 80% | 1018.2 hPa | 0 mm | - | 341 W/m² | - |
| 1787864887 | 23.89° C | 81% | 1018.3 hPa | 0 mm | - | 277 W/m² | - |
| 1787864586 | 23.89° C | 81% | 1018.3 hPa | 0 mm | - | 147 W/m² | - |
| 1787864281 | 23.89° C | 80% | 1018.5 hPa | 0 mm | - | 122 W/m² | - |
| 1787863976 | 24.44° C | 80% | 1018.6 hPa | 0 mm | - | 142 W/m² | - |
| 1787863674 | 24.44° C | 78% | 1018.7 hPa | 0 mm | - | 225 W/m² | - |
| 1787863373 | 24.44° C | 79% | 1018.5 hPa | 0 mm | - | 158 W/m² | - |
| 1787863069 | 24.44° C | 81% | 1018.7 hPa | 0 mm | - | 245 W/m² | - |
| 1787862764 | 24.44° C | 81% | 1018.6 hPa | 0 mm | - | 263 W/m² | - |
| 1787862463 | 24.44° C | 83% | 1018.5 hPa | 0 mm | - | 257 W/m² | - |
| 1787862159 | 24.44° C | 83% | 1018.5 hPa | 0 mm | - | 238 W/m² | - |
| 1787861854 | 24.44° C | 83% | 1018.6 hPa | 0 mm | - | 115 W/m² | - |
| 1787861552 | 24.44° C | 84% | 1018.6 hPa | 0 mm | - | 312 W/m² | - |
* Rain latest hour (hover to see other rain measurements)
** Current wind speed in m/s (hover to see current wind gust speed)